METAR KSCH 251200Z AUTO 08006KT 10SM SCT008 SCT013 18/16 A3000 A02